ADDS METAR Data

Data at: 0742 UTC 24 Oct 2017

METAR for:KEEN (Keene/Hopkins Arpt, NH, US)
Text:KEEN 240656Z AUTO 17012G19KT 10SM BKN026 OVC065 20/16 A3003 RMK AO2 SLP184 T02000161
Temperature: 20.0°C ( 68°F)
Dewpoint: 16.1°C ( 61°F) [RH = 78%]
Pressure (altimeter):30.03 inches Hg (1017.0 mb) [Sea level pressure: 1018.4 mb]
Winds:from the S (170 degrees) at 14 MPH (12 knots; 6.2 m/s) gusting to 22 MPH (19 knots; 9.8 m/s)
Visibility:10 or more sm (16+ km)
Ceiling:2600 feet AGL
Clouds: broken clouds at 2600 feet AGL, overcast cloud deck at 6500 feet AGL
QC Flag:automated observation with no human augmentation